< Typhoon 197220 1972 Season Typhoon 197222 >
Typhoon 197221 (IDA)
General InformationTrack Information on Google Maps || Disaster Info.ResourceGoogle EarthGE AnimationAtom FeedGeoJSON
Detalied Best Track (Time Zone = UTC)
Year Month Day Hour Lat. Long. Pressure (hPa) Wind (kt) Class Image Chart
1972 9 16 18 18.2 154.0 1004 0 2 -- Chart
1972 9 17 00 17.6 154.5 1000 0 2 -- Chart
1972 9 17 06 17.2 155.0 992 0 9 -- Chart
1972 9 17 12 16.5 155.8 990 0 9 -- Chart
1972 9 17 18 16.2 156.5 985 0 9 -- Chart
1972 9 18 00 16.3 157.0 985 0 9 -- Chart
1972 9 18 06 15.8 157.7 980 0 9 -- Chart
1972 9 18 12 15.5 158.1 975 0 9 -- Chart
1972 9 18 18 15.4 158.2 970 0 9 -- Chart
1972 9 19 00 15.5 158.4 970 0 9 -- Chart
1972 9 19 06 15.7 157.4 970 0 9 -- Chart
1972 9 19 12 16.0 156.4 970 0 9 -- Chart
1972 9 19 18 16.3 155.2 975 0 9 -- Chart
1972 9 20 00 16.6 153.9 980 0 9 -- Chart
1972 9 20 06 16.8 152.9 980 0 9 -- Chart
1972 9 20 12 17.3 151.3 975 0 9 -- Chart
1972 9 20 18 17.7 149.7 970 0 9 -- Chart
1972 9 21 00 18.0 148.1 955 0 9 -- Chart
1972 9 21 06 18.5 146.8 955 0 9 -- Chart
1972 9 21 12 19.4 145.9 950 0 9 -- Chart
1972 9 21 18 20.4 144.9 945 0 9 -- Chart
1972 9 22 00 21.5 143.8 935 0 9 -- Chart
1972 9 22 06 22.4 143.3 930 0 9 -- Chart
1972 9 22 12 23.3 142.7 930 0 9 -- Chart
1972 9 22 18 24.3 142.2 935 0 9 -- Chart
1972 9 23 00 25.6 141.7 935 0 9 -- Chart
1972 9 23 06 26.9 141.6 935 0 9 -- Chart
1972 9 23 12 28.3 141.6 935 0 9 -- Chart
1972 9 23 18 30.5 142.1 940 0 9 -- Chart
1972 9 24 00 32.2 142.5 950 0 9 -- Chart
1972 9 24 06 34.4 144.2 950 0 9 -- Chart
1972 9 24 12 36.5 146.2 960 0 9 -- Chart
1972 9 24 18 37.5 148.0 965 0 9 -- Chart
1972 9 25 00 38.5 150.0 970 0 9 -- Chart
1972 9 25 06 39.3 152.2 975 0 9 -- Chart
1972 9 25 12 39.6 156.1 980 0 9 -- Chart
1972 9 25 18 39.0 159.3 990 0 9 -- Chart
1972 9 26 00 37.5 162.5 992 0 6 -- Chart
1972 9 26 06 36.0 166.0 992 0 6 -- Chart
1972 9 26 12 33.5 170.0 992 0 6 -- Chart
1972 9 26 18 32.0 173.0 998 0 6 -- Chart
1972 9 27 00 30.5 175.0 1000 0 6 -- Chart
1972 9 27 06 29.7 177.4 1002 0 6 -- Chart
1972 9 27 12 29.3 179.4 1006 0 6 -- Chart
Japan Meteorological Agency Best Track Data | Correction Date : 1989-06-01
< Typhoon 197220 1972 Season Typhoon 197222 >

Help